sensor_id;sensor_type;location;lat;lon;timestamp;temperature;humidity
8436;DHT22;4255;48.730;9.156;2022-07-29T00:02:13;21.20;99.90
8436;DHT22;4255;48.730;9.156;2022-07-29T00:04:38;21.20;99.90
8436;DHT22;4255;48.730;9.156;2022-07-29T00:07:04;21.20;99.90
8436;DHT22;4255;48.730;9.156;2022-07-29T00:09:31;21.00;99.90
8436;DHT22;4255;48.730;9.156;2022-07-29T00:11:59;21.00;99.90
8436;DHT22;4255;48.730;9.156;2022-07-29T00:14:25;21.10;99.90
8436;DHT22;4255;48.730;9.156;2022-07-29T00:16:51;21.00;99.90
8436;DHT22;4255;48.730;9.156;2022-07-29T00:19:16;21.00;99.90
8436;DHT22;4255;48.730;9.156;2022-07-29T00:21:42;21.00;99.90
8436;DHT22;4255;48.730;9.156;2022-07-29T00:24:08;21.00;99.90
8436;DHT22;4255;48.730;9.156;2022-07-29T00:26:33;21.10;99.90
8436;DHT22;4255;48.730;9.156;2022-07-29T00:29:00;21.10;99.90
8436;DHT22;4255;48.730;9.156;2022-07-29T00:31:26;21.00;99.90
8436;DHT22;4255;48.730;9.156;2022-07-29T00:33:52;20.90;99.90
8436;DHT22;4255;48.730;9.156;2022-07-29T00:36:17;20.80;99.90
8436;DHT22;4255;48.730;9.156;2022-07-29T00:38:43;20.80;99.90
8436;DHT22;4255;48.730;9.156;2022-07-29T00:41:11;20.70;99.90
8436;DHT22;4255;48.730;9.156;2022-07-29T00:43:37;20.80;99.90
8436;DHT22;4255;48.730;9.156;2022-07-29T00:46:03;20.80;99.90
8436;DHT22;4255;48.730;9.156;2022-07-29T00:48:29;20.80;99.90
8436;DHT22;4255;48.730;9.156;2022-07-29T00:50:57;20.80;99.90
8436;DHT22;4255;48.730;9.156;2022-07-29T00:53:23;20.70;99.90
8436;DHT22;4255;48.730;9.156;2022-07-29T00:55:50;20.70;99.90
8436;DHT22;4255;48.730;9.156;2022-07-29T00:58:16;20.70;99.90
8436;DHT22;4255;48.730;9.156;2022-07-29T01:00:42;20.70;99.90
8436;DHT22;4255;48.730;9.156;2022-07-29T01:03:08;20.60;99.90
8436;DHT22;4255;48.730;9.156;2022-07-29T01:05:34;20.70;99.90
8436;DHT22;4255;48.730;9.156;2022-07-29T01:08:00;20.70;99.90
8436;DHT22;4255;48.730;9.156;2022-07-29T01:10:27;20.60;99.90
8436;DHT22;4255;48.730;9.156;2022-07-29T01:12:54;20.60;99.90
8436;DHT22;4255;48.730;9.156;2022-07-29T01:15:22;20.70;99.90
8436;DHT22;4255;48.730;9.156;2022-07-29T01:29:15;20.60;99.90
8436;DHT22;4255;48.730;9.156;2022-07-29T01:34:29;20.30;99.90
8436;DHT22;4255;48.730;9.156;2022-07-29T01:37:24;20.00;99.90
8436;DHT22;4255;48.730;9.156;2022-07-29T01:39:53;20.00;99.90
8436;DHT22;4255;48.730;9.156;2022-07-29T01:45:02;20.00;99.90
8436;DHT22;4255;48.730;9.156;2022-07-29T01:47:38;19.90;99.90
8436;DHT22;4255;48.730;9.156;2022-07-29T01:50:08;19.90;99.90
8436;DHT22;4255;48.730;9.156;2022-07-29T01:52:54;19.80;99.90
8436;DHT22;4255;48.730;9.156;2022-07-29T01:55:24;19.80;99.90
8436;DHT22;4255;48.730;9.156;2022-07-29T01:57:50;19.80;99.90
8436;DHT22;4255;48.730;9.156;2022-07-29T02:00:16;19.90;99.90
8436;DHT22;4255;48.730;9.156;2022-07-29T02:02:44;19.90;99.90
8436;DHT22;4255;48.730;9.156;2022-07-29T02:05:13;19.80;99.90
8436;DHT22;4255;48.730;9.156;2022-07-29T02:07:41;19.80;99.90
8436;DHT22;4255;48.730;9.156;2022-07-29T02:10:09;19.80;99.90
8436;DHT22;4255;48.730;9.156;2022-07-29T02:12:36;20.00;99.90
8436;DHT22;4255;48.730;9.156;2022-07-29T02:15:04;20.00;99.90
8436;DHT22;4255;48.730;9.156;2022-07-29T02:17:41;20.00;99.90
8436;DHT22;4255;48.730;9.156;2022-07-29T02:20:08;20.00;99.90
8436;DHT22;4255;48.730;9.156;2022-07-29T02:22:36;20.00;99.90
8436;DHT22;4255;48.730;9.156;2022-07-29T02:25:02;19.80;99.90
8436;DHT22;4255;48.730;9.156;2022-07-29T02:27:30;19.60;99.90
8436;DHT22;4255;48.730;9.156;2022-07-29T02:29:58;19.50;99.90
8436;DHT22;4255;48.730;9.156;2022-07-29T02:32:26;19.40;99.90
8436;DHT22;4255;48.730;9.156;2022-07-29T02:34:52;19.40;99.90
8436;DHT22;4255;48.730;9.156;2022-07-29T02:37:19;19.40;99.90
8436;DHT22;4255;48.730;9.156;2022-07-29T02:39:47;19.40;99.90
8436;DHT22;4255;48.730;9.156;2022-07-29T02:42:16;19.60;99.90
8436;DHT22;4255;48.730;9.156;2022-07-29T02:44:42;19.60;99.90
8436;DHT22;4255;48.730;9.156;2022-07-29T02:47:18;19.70;99.90
8436;DHT22;4255;48.730;9.156;2022-07-29T02:49:57;19.80;99.90
8436;DHT22;4255;48.730;9.156;2022-07-29T02:52:31;19.90;99.90
8436;DHT22;4255;48.730;9.156;2022-07-29T02:57:35;20.00;99.90
8436;DHT22;4255;48.730;9.156;2022-07-29T03:00:07;20.00;99.90
8436;DHT22;4255;48.730;9.156;2022-07-29T03:02:36;19.90;99.90
8436;DHT22;4255;48.730;9.156;2022-07-29T03:05:04;19.90;99.90
8436;DHT22;4255;48.730;9.156;2022-07-29T03:07:33;19.80;99.90
8436;DHT22;4255;48.730;9.156;2022-07-29T03:09:59;19.70;99.90
8436;DHT22;4255;48.730;9.156;2022-07-29T03:12:25;19.70;99.90
8436;DHT22;4255;48.730;9.156;2022-07-29T03:14:52;19.80;99.90
8436;DHT22;4255;48.730;9.156;2022-07-29T03:17:19;19.70;99.90
8436;DHT22;4255;48.730;9.156;2022-07-29T03:19:46;19.70;99.90
8436;DHT22;4255;48.730;9.156;2022-07-29T03:22:12;19.70;99.90
8436;DHT22;4255;48.730;9.156;2022-07-29T03:24:37;19.60;99.90
8436;DHT22;4255;48.730;9.156;2022-07-29T03:27:04;19.60;99.90
8436;DHT22;4255;48.730;9.156;2022-07-29T03:29:30;19.60;99.90
8436;DHT22;4255;48.730;9.156;2022-07-29T03:31:56;19.50;99.90
8436;DHT22;4255;48.730;9.156;2022-07-29T03:34:22;19.50;99.90
8436;DHT22;4255;48.730;9.156;2022-07-29T03:36:48;19.60;99.90
8436;DHT22;4255;48.730;9.156;2022-07-29T03:39:24;19.60;99.90
8436;DHT22;4255;48.730;9.156;2022-07-29T03:41:55;19.60;99.90
8436;DHT22;4255;48.730;9.156;2022-07-29T03:44:22;19.60;99.90
8436;DHT22;4255;48.730;9.156;2022-07-29T03:46:50;19.70;99.90
8436;DHT22;4255;48.730;9.156;2022-07-29T03:49:16;19.70;99.90
8436;DHT22;4255;48.730;9.156;2022-07-29T03:51:43;19.60;99.90
8436;DHT22;4255;48.730;9.156;2022-07-29T03:54:09;19.60;99.90
8436;DHT22;4255;48.730;9.156;2022-07-29T03:56:39;19.50;99.90
8436;DHT22;4255;48.730;9.156;2022-07-29T03:59:06;19.50;99.90
8436;DHT22;4255;48.730;9.156;2022-07-29T04:01:33;19.50;99.90
8436;DHT22;4255;48.730;9.156;2022-07-29T04:04:00;19.40;99.90
8436;DHT22;4255;48.730;9.156;2022-07-29T04:06:26;19.40;99.90
8436;DHT22;4255;48.730;9.156;2022-07-29T04:08:52;19.40;99.90
8436;DHT22;4255;48.730;9.156;2022-07-29T04:11:18;19.50;99.90
8436;DHT22;4255;48.730;9.156;2022-07-29T04:13:44;19.50;99.90
8436;DHT22;4255;48.730;9.156;2022-07-29T04:16:09;19.50;99.90
8436;DHT22;4255;48.730;9.156;2022-07-29T04:18:35;19.60;99.90
8436;DHT22;4255;48.730;9.156;2022-07-29T04:21:00;19.70;99.90
8436;DHT22;4255;48.730;9.156;2022-07-29T04:23:27;19.70;99.90
8436;DHT22;4255;48.730;9.156;2022-07-29T04:25:54;19.70;99.90
8436;DHT22;4255;48.730;9.156;2022-07-29T04:28:20;19.70;99.90
8436;DHT22;4255;48.730;9.156;2022-07-29T04:30:45;19.70;99.90
8436;DHT22;4255;48.730;9.156;2022-07-29T04:33:11;19.70;99.90
8436;DHT22;4255;48.730;9.156;2022-07-29T04:35:37;19.70;99.90
8436;DHT22;4255;48.730;9.156;2022-07-29T04:38:04;19.80;99.90
8436;DHT22;4255;48.730;9.156;2022-07-29T04:40:30;19.90;99.90
8436;DHT22;4255;48.730;9.156;2022-07-29T04:42:56;19.90;99.90
8436;DHT22;4255;48.730;9.156;2022-07-29T04:45:21;19.90;99.90
8436;DHT22;4255;48.730;9.156;2022-07-29T04:47:47;19.90;99.90
8436;DHT22;4255;48.730;9.156;2022-07-29T04:50:13;20.00;99.90
8436;DHT22;4255;48.730;9.156;2022-07-29T04:52:38;20.10;99.90
8436;DHT22;4255;48.730;9.156;2022-07-29T04:55:05;20.20;99.90
8436;DHT22;4255;48.730;9.156;2022-07-29T04:57:31;20.20;99.90
8436;DHT22;4255;48.730;9.156;2022-07-29T04:59:56;20.20;99.90
8436;DHT22;4255;48.730;9.156;2022-07-29T05:02:22;20.30;99.90
8436;DHT22;4255;48.730;9.156;2022-07-29T05:04:48;20.40;99.90
8436;DHT22;4255;48.730;9.156;2022-07-29T05:07:14;20.40;99.90
8436;DHT22;4255;48.730;9.156;2022-07-29T05:09:39;20.60;99.90
8436;DHT22;4255;48.730;9.156;2022-07-29T05:12:05;20.50;99.90
8436;DHT22;4255;48.730;9.156;2022-07-29T05:14:31;20.70;99.90
8436;DHT22;4255;48.730;9.156;2022-07-29T05:16:57;20.60;99.90
8436;DHT22;4255;48.730;9.156;2022-07-29T05:19:23;20.60;99.90
8436;DHT22;4255;48.730;9.156;2022-07-29T05:21:49;20.70;99.90
8436;DHT22;4255;48.730;9.156;2022-07-29T05:24:14;20.90;99.90
8436;DHT22;4255;48.730;9.156;2022-07-29T05:26:40;21.00;99.90
8436;DHT22;4255;48.730;9.156;2022-07-29T05:29:06;21.00;99.90
8436;DHT22;4255;48.730;9.156;2022-07-29T05:31:31;21.00;99.90
8436;DHT22;4255;48.730;9.156;2022-07-29T05:33:57;21.10;99.90
8436;DHT22;4255;48.730;9.156;2022-07-29T05:36:22;21.30;99.90
8436;DHT22;4255;48.730;9.156;2022-07-29T05:38:48;21.50;99.90
8436;DHT22;4255;48.730;9.156;2022-07-29T05:41:14;21.50;99.90
8436;DHT22;4255;48.730;9.156;2022-07-29T05:43:39;21.50;99.90
8436;DHT22;4255;48.730;9.156;2022-07-29T05:46:05;21.60;99.90
8436;DHT22;4255;48.730;9.156;2022-07-29T05:48:31;21.50;99.90
8436;DHT22;4255;48.730;9.156;2022-07-29T05:50:56;21.60;99.90
8436;DHT22;4255;48.730;9.156;2022-07-29T05:53:22;21.80;99.90
8436;DHT22;4255;48.730;9.156;2022-07-29T05:55:48;21.80;99.90
8436;DHT22;4255;48.730;9.156;2022-07-29T05:58:14;21.60;99.90
8436;DHT22;4255;48.730;9.156;2022-07-29T06:00:40;21.60;99.90
8436;DHT22;4255;48.730;9.156;2022-07-29T06:03:06;21.80;99.90
8436;DHT22;4255;48.730;9.156;2022-07-29T06:05:31;21.80;99.90
8436;DHT22;4255;48.730;9.156;2022-07-29T06:07:57;21.90;99.90
8436;DHT22;4255;48.730;9.156;2022-07-29T06:10:23;21.90;99.90
8436;DHT22;4255;48.730;9.156;2022-07-29T06:12:48;21.90;99.90
8436;DHT22;4255;48.730;9.156;2022-07-29T06:15:14;22.00;99.90
8436;DHT22;4255;48.730;9.156;2022-07-29T06:17:40;21.90;99.90
8436;DHT22;4255;48.730;9.156;2022-07-29T06:20:06;21.90;99.90
8436;DHT22;4255;48.730;9.156;2022-07-29T06:22:32;22.00;99.90
8436;DHT22;4255;48.730;9.156;2022-07-29T06:24:57;22.20;99.90
8436;DHT22;4255;48.730;9.156;2022-07-29T06:27:23;22.40;99.90
8436;DHT22;4255;48.730;9.156;2022-07-29T06:29:49;22.50;99.90
8436;DHT22;4255;48.730;9.156;2022-07-29T06:32:14;22.60;99.90
8436;DHT22;4255;48.730;9.156;2022-07-29T06:34:40;22.90;99.90
8436;DHT22;4255;48.730;9.156;2022-07-29T06:37:07;23.10;99.90
8436;DHT22;4255;48.730;9.156;2022-07-29T06:39:37;23.10;99.90
8436;DHT22;4255;48.730;9.156;2022-07-29T06:42:06;23.30;99.90
8436;DHT22;4255;48.730;9.156;2022-07-29T06:44:32;23.60;99.90
8436;DHT22;4255;48.730;9.156;2022-07-29T06:46:59;23.80;99.90
8436;DHT22;4255;48.730;9.156;2022-07-29T06:49:25;23.80;99.90
8436;DHT22;4255;48.730;9.156;2022-07-29T06:51:52;23.90;99.90
8436;DHT22;4255;48.730;9.156;2022-07-29T06:54:17;23.90;99.90
8436;DHT22;4255;48.730;9.156;2022-07-29T06:56:43;23.90;99.90
8436;DHT22;4255;48.730;9.156;2022-07-29T06:59:10;23.90;99.90
8436;DHT22;4255;48.730;9.156;2022-07-29T07:01:37;24.00;99.90
8436;DHT22;4255;48.730;9.156;2022-07-29T07:04:03;24.20;99.90
8436;DHT22;4255;48.730;9.156;2022-07-29T07:06:29;24.30;99.90
8436;DHT22;4255;48.730;9.156;2022-07-29T07:08:55;24.30;99.90
8436;DHT22;4255;48.730;9.156;2022-07-29T07:11:20;24.30;99.90
8436;DHT22;4255;48.730;9.156;2022-07-29T07:13:46;24.50;99.90
8436;DHT22;4255;48.730;9.156;2022-07-29T07:16:12;24.70;99.90
8436;DHT22;4255;48.730;9.156;2022-07-29T07:18:37;24.90;99.90
8436;DHT22;4255;48.730;9.156;2022-07-29T07:21:03;25.00;99.90
8436;DHT22;4255;48.730;9.156;2022-07-29T07:23:30;25.10;99.90
8436;DHT22;4255;48.730;9.156;2022-07-29T07:25:56;25.30;99.90
8436;DHT22;4255;48.730;9.156;2022-07-29T07:28:21;25.40;99.90
8436;DHT22;4255;48.730;9.156;2022-07-29T07:30:47;25.50;99.90
8436;DHT22;4255;48.730;9.156;2022-07-29T07:33:13;25.60;99.90
8436;DHT22;4255;48.730;9.156;2022-07-29T07:35:39;25.50;99.90
8436;DHT22;4255;48.730;9.156;2022-07-29T07:38:04;25.40;99.90
8436;DHT22;4255;48.730;9.156;2022-07-29T07:40:31;25.40;99.90
8436;DHT22;4255;48.730;9.156;2022-07-29T07:42:57;25.30;99.90
8436;DHT22;4255;48.730;9.156;2022-07-29T07:45:23;25.20;99.90
8436;DHT22;4255;48.730;9.156;2022-07-29T07:47:49;25.40;99.90
8436;DHT22;4255;48.730;9.156;2022-07-29T07:50:15;25.60;99.90
8436;DHT22;4255;48.730;9.156;2022-07-29T07:52:51;25.70;99.90
8436;DHT22;4255;48.730;9.156;2022-07-29T07:55:17;26.00;99.90
8436;DHT22;4255;48.730;9.156;2022-07-29T07:57:44;26.20;99.90
8436;DHT22;4255;48.730;9.156;2022-07-29T08:00:12;26.20;99.90
8436;DHT22;4255;48.730;9.156;2022-07-29T08:02:38;26.30;99.90
8436;DHT22;4255;48.730;9.156;2022-07-29T08:05:05;26.40;99.90
8436;DHT22;4255;48.730;9.156;2022-07-29T08:07:32;26.60;99.90
8436;DHT22;4255;48.730;9.156;2022-07-29T08:09:57;26.90;99.90
8436;DHT22;4255;48.730;9.156;2022-07-29T08:12:23;27.00;99.90
8436;DHT22;4255;48.730;9.156;2022-07-29T08:14:48;27.00;99.90
8436;DHT22;4255;48.730;9.156;2022-07-29T08:17:14;27.20;99.90
8436;DHT22;4255;48.730;9.156;2022-07-29T08:19:40;27.30;99.90
8436;DHT22;4255;48.730;9.156;2022-07-29T08:22:05;27.70;99.90
8436;DHT22;4255;48.730;9.156;2022-07-29T08:24:31;27.70;99.90
8436;DHT22;4255;48.730;9.156;2022-07-29T08:27:13;27.90;99.90
8436;DHT22;4255;48.730;9.156;2022-07-29T08:29:39;28.10;99.90
8436;DHT22;4255;48.730;9.156;2022-07-29T08:32:06;28.10;99.90
8436;DHT22;4255;48.730;9.156;2022-07-29T08:34:32;28.30;99.90
8436;DHT22;4255;48.730;9.156;2022-07-29T08:36:58;28.00;99.90
8436;DHT22;4255;48.730;9.156;2022-07-29T08:39:24;28.10;99.90
8436;DHT22;4255;48.730;9.156;2022-07-29T08:41:50;28.30;99.90
8436;DHT22;4255;48.730;9.156;2022-07-29T08:44:17;28.10;99.90
8436;DHT22;4255;48.730;9.156;2022-07-29T08:46:44;27.80;99.90
8436;DHT22;4255;48.730;9.156;2022-07-29T08:49:09;27.90;99.90
8436;DHT22;4255;48.730;9.156;2022-07-29T08:51:36;28.00;99.90
8436;DHT22;4255;48.730;9.156;2022-07-29T08:54:04;28.30;99.90
8436;DHT22;4255;48.730;9.156;2022-07-29T08:56:30;28.40;99.90
8436;DHT22;4255;48.730;9.156;2022-07-29T08:58:58;28.20;99.90
8436;DHT22;4255;48.730;9.156;2022-07-29T09:01:26;28.20;99.90
8436;DHT22;4255;48.730;9.156;2022-07-29T09:03:55;28.30;99.90
8436;DHT22;4255;48.730;9.156;2022-07-29T09:06:22;28.50;99.90
8436;DHT22;4255;48.730;9.156;2022-07-29T09:08:51;28.50;99.90
8436;DHT22;4255;48.730;9.156;2022-07-29T09:11:17;28.70;99.90
8436;DHT22;4255;48.730;9.156;2022-07-29T09:13:43;28.70;99.90
8436;DHT22;4255;48.730;9.156;2022-07-29T09:16:08;28.60;99.90
8436;DHT22;4255;48.730;9.156;2022-07-29T09:18:40;28.50;99.90
8436;DHT22;4255;48.730;9.156;2022-07-29T09:21:07;28.50;99.90
8436;DHT22;4255;48.730;9.156;2022-07-29T09:24:12;28.50;99.90
8436;DHT22;4255;48.730;9.156;2022-07-29T09:26:43;28.40;99.90
8436;DHT22;4255;48.730;9.156;2022-07-29T09:31:40;28.20;99.90
8436;DHT22;4255;48.730;9.156;2022-07-29T09:34:07;28.00;99.90
8436;DHT22;4255;48.730;9.156;2022-07-29T09:36:44;28.00;99.90
8436;DHT22;4255;48.730;9.156;2022-07-29T09:39:11;28.30;99.90
8436;DHT22;4255;48.730;9.156;2022-07-29T09:41:50;28.50;99.90
8436;DHT22;4255;48.730;9.156;2022-07-29T09:44:20;28.70;99.90
8436;DHT22;4255;48.730;9.156;2022-07-29T09:47:02;28.60;99.90
8436;DHT22;4255;48.730;9.156;2022-07-29T09:49:31;28.70;99.90
8436;DHT22;4255;48.730;9.156;2022-07-29T09:52:04;28.80;99.90
8436;DHT22;4255;48.730;9.156;2022-07-29T09:54:30;28.80;99.90
8436;DHT22;4255;48.730;9.156;2022-07-29T09:57:05;28.80;99.90
8436;DHT22;4255;48.730;9.156;2022-07-29T09:59:32;28.70;99.90
8436;DHT22;4255;48.730;9.156;2022-07-29T10:01:58;28.80;99.90
8436;DHT22;4255;48.730;9.156;2022-07-29T10:04:26;29.10;99.90
8436;DHT22;4255;48.730;9.156;2022-07-29T10:07:02;29.50;99.90
8436;DHT22;4255;48.730;9.156;2022-07-29T10:09:30;29.80;99.90
8436;DHT22;4255;48.730;9.156;2022-07-29T10:12:10;29.90;99.90
8436;DHT22;4255;48.730;9.156;2022-07-29T10:14:39;30.20;99.90
8436;DHT22;4255;48.730;9.156;2022-07-29T10:17:06;30.30;99.90
8436;DHT22;4255;48.730;9.156;2022-07-29T10:19:33;30.60;99.90
8436;DHT22;4255;48.730;9.156;2022-07-29T10:22:00;30.60;99.90
8436;DHT22;4255;48.730;9.156;2022-07-29T10:24:28;30.20;99.90
8436;DHT22;4255;48.730;9.156;2022-07-29T10:26:56;30.20;99.90
8436;DHT22;4255;48.730;9.156;2022-07-29T10:29:22;30.20;99.90
8436;DHT22;4255;48.730;9.156;2022-07-29T10:35:01;30.10;99.90
8436;DHT22;4255;48.730;9.156;2022-07-29T10:37:52;29.90;99.90
8436;DHT22;4255;48.730;9.156;2022-07-29T10:43:28;29.50;99.90
8436;DHT22;4255;48.730;9.156;2022-07-29T10:45:59;29.10;99.90
8436;DHT22;4255;48.730;9.156;2022-07-29T10:48:25;28.60;99.90
8436;DHT22;4255;48.730;9.156;2022-07-29T10:51:02;28.00;99.90
8436;DHT22;4255;48.730;9.156;2022-07-29T10:53:49;27.60;99.90
8436;DHT22;4255;48.730;9.156;2022-07-29T10:56:29;26.90;99.90
8436;DHT22;4255;48.730;9.156;2022-07-29T11:01:44;25.70;99.90
8436;DHT22;4255;48.730;9.156;2022-07-29T11:04:09;25.60;99.90
8436;DHT22;4255;48.730;9.156;2022-07-29T11:09:30;24.40;99.90
8436;DHT22;4255;48.730;9.156;2022-07-29T11:11:56;23.60;99.90
8436;DHT22;4255;48.730;9.156;2022-07-29T11:17:20;22.90;99.90
8436;DHT22;4255;48.730;9.156;2022-07-29T11:19:46;22.50;99.90
8436;DHT22;4255;48.730;9.156;2022-07-29T11:22:34;22.10;99.90
8436;DHT22;4255;48.730;9.156;2022-07-29T11:25:16;21.50;99.90
8436;DHT22;4255;48.730;9.156;2022-07-29T11:27:44;21.30;99.90
8436;DHT22;4255;48.730;9.156;2022-07-29T11:30:10;21.30;99.90
8436;DHT22;4255;48.730;9.156;2022-07-29T11:32:39;21.50;99.90
8436;DHT22;4255;48.730;9.156;2022-07-29T11:35:19;21.60;99.90
8436;DHT22;4255;48.730;9.156;2022-07-29T11:38:23;22.00;99.90
8436;DHT22;4255;48.730;9.156;2022-07-29T11:40:33;22.40;99.90
8436;DHT22;4255;48.730;9.156;2022-07-29T11:42:58;22.70;99.90
8436;DHT22;4255;48.730;9.156;2022-07-29T11:45:26;22.80;99.90
8436;DHT22;4255;48.730;9.156;2022-07-29T11:47:58;22.70;99.90
8436;DHT22;4255;48.730;9.156;2022-07-29T11:50:32;22.80;99.90
8436;DHT22;4255;48.730;9.156;2022-07-29T11:52:59;22.80;99.90
8436;DHT22;4255;48.730;9.156;2022-07-29T11:55:25;22.60;99.90
8436;DHT22;4255;48.730;9.156;2022-07-29T11:57:57;22.40;99.90
8436;DHT22;4255;48.730;9.156;2022-07-29T12:00:45;22.30;99.90
8436;DHT22;4255;48.730;9.156;2022-07-29T12:03:11;22.20;99.90
8436;DHT22;4255;48.730;9.156;2022-07-29T12:05:42;22.00;99.90
8436;DHT22;4255;48.730;9.156;2022-07-29T12:10:36;22.10;99.90
8436;DHT22;4255;48.730;9.156;2022-07-29T12:13:02;22.20;99.90
8436;DHT22;4255;48.730;9.156;2022-07-29T12:15:28;22.40;99.90
8436;DHT22;4255;48.730;9.156;2022-07-29T12:17:54;22.70;99.90
8436;DHT22;4255;48.730;9.156;2022-07-29T12:20:27;22.60;99.90
8436;DHT22;4255;48.730;9.156;2022-07-29T12:22:53;22.70;99.90
8436;DHT22;4255;48.730;9.156;2022-07-29T12:25:20;22.70;99.90
8436;DHT22;4255;48.730;9.156;2022-07-29T12:27:46;22.80;99.90
8436;DHT22;4255;48.730;9.156;2022-07-29T12:30:14;22.90;99.90
8436;DHT22;4255;48.730;9.156;2022-07-29T12:32:41;23.00;99.90
8436;DHT22;4255;48.730;9.156;2022-07-29T12:35:10;23.10;99.90
8436;DHT22;4255;48.730;9.156;2022-07-29T12:37:38;23.30;99.90
8436;DHT22;4255;48.730;9.156;2022-07-29T12:40:06;23.20;99.90
8436;DHT22;4255;48.730;9.156;2022-07-29T12:42:33;23.10;99.90
8436;DHT22;4255;48.730;9.156;2022-07-29T12:44:58;23.00;99.90
8436;DHT22;4255;48.730;9.156;2022-07-29T12:47:24;22.70;99.90
8436;DHT22;4255;48.730;9.156;2022-07-29T12:49:50;22.60;99.90
8436;DHT22;4255;48.730;9.156;2022-07-29T12:52:34;22.70;99.90
8436;DHT22;4255;48.730;9.156;2022-07-29T12:55:00;22.80;99.90
8436;DHT22;4255;48.730;9.156;2022-07-29T12:57:26;22.80;99.90
8436;DHT22;4255;48.730;9.156;2022-07-29T13:00:00;22.70;99.90
8436;DHT22;4255;48.730;9.156;2022-07-29T13:02:25;22.90;99.90
8436;DHT22;4255;48.730;9.156;2022-07-29T13:04:58;23.00;99.90
8436;DHT22;4255;48.730;9.156;2022-07-29T13:07:30;23.00;99.90
8436;DHT22;4255;48.730;9.156;2022-07-29T13:10:16;23.00;99.90
8436;DHT22;4255;48.730;9.156;2022-07-29T13:13:05;23.00;99.90
8436;DHT22;4255;48.730;9.156;2022-07-29T13:15:31;22.90;99.90
8436;DHT22;4255;48.730;9.156;2022-07-29T13:17:57;22.70;99.90
8436;DHT22;4255;48.730;9.156;2022-07-29T13:20:28;22.70;99.90
8436;DHT22;4255;48.730;9.156;2022-07-29T13:22:58;22.50;99.90
8436;DHT22;4255;48.730;9.156;2022-07-29T13:25:31;22.20;99.90
8436;DHT22;4255;48.730;9.156;2022-07-29T13:27:58;22.00;99.90
8436;DHT22;4255;48.730;9.156;2022-07-29T13:30:25;22.20;99.90
8436;DHT22;4255;48.730;9.156;2022-07-29T13:32:51;22.20;99.90
8436;DHT22;4255;48.730;9.156;2022-07-29T13:35:19;22.10;99.90
8436;DHT22;4255;48.730;9.156;2022-07-29T13:37:45;21.90;99.90
8436;DHT22;4255;48.730;9.156;2022-07-29T13:40:12;21.80;99.90
8436;DHT22;4255;48.730;9.156;2022-07-29T13:42:38;21.90;99.90
8436;DHT22;4255;48.730;9.156;2022-07-29T13:45:05;22.10;99.90
8436;DHT22;4255;48.730;9.156;2022-07-29T13:47:32;22.30;99.90
8436;DHT22;4255;48.730;9.156;2022-07-29T13:49:57;22.60;99.90
8436;DHT22;4255;48.730;9.156;2022-07-29T13:52:23;22.90;99.90
8436;DHT22;4255;48.730;9.156;2022-07-29T13:54:49;23.00;99.90
8436;DHT22;4255;48.730;9.156;2022-07-29T13:57:14;23.30;99.90
8436;DHT22;4255;48.730;9.156;2022-07-29T13:59:41;23.50;99.90
8436;DHT22;4255;48.730;9.156;2022-07-29T14:02:08;23.70;99.90
8436;DHT22;4255;48.730;9.156;2022-07-29T14:04:34;24.10;99.90
8436;DHT22;4255;48.730;9.156;2022-07-29T14:07:00;24.30;99.90
8436;DHT22;4255;48.730;9.156;2022-07-29T14:09:26;24.30;99.90
8436;DHT22;4255;48.730;9.156;2022-07-29T14:11:51;24.50;99.90
8436;DHT22;4255;48.730;9.156;2022-07-29T14:14:18;24.80;99.90
8436;DHT22;4255;48.730;9.156;2022-07-29T14:16:44;25.00;99.90
8436;DHT22;4255;48.730;9.156;2022-07-29T14:19:09;25.30;99.90
8436;DHT22;4255;48.730;9.156;2022-07-29T14:21:36;25.40;99.90
8436;DHT22;4255;48.730;9.156;2022-07-29T14:24:02;25.60;99.90
8436;DHT22;4255;48.730;9.156;2022-07-29T14:26:28;25.70;99.90
8436;DHT22;4255;48.730;9.156;2022-07-29T14:28:53;25.80;99.90
8436;DHT22;4255;48.730;9.156;2022-07-29T14:31:19;25.70;99.90
8436;DHT22;4255;48.730;9.156;2022-07-29T14:33:45;25.70;99.90
8436;DHT22;4255;48.730;9.156;2022-07-29T14:36:10;25.70;99.90
8436;DHT22;4255;48.730;9.156;2022-07-29T14:38:36;25.60;99.90
8436;DHT22;4255;48.730;9.156;2022-07-29T14:41:03;25.70;99.90
8436;DHT22;4255;48.730;9.156;2022-07-29T14:43:28;25.70;99.90
8436;DHT22;4255;48.730;9.156;2022-07-29T14:45:54;25.80;99.90
8436;DHT22;4255;48.730;9.156;2022-07-29T14:48:20;26.00;99.90
8436;DHT22;4255;48.730;9.156;2022-07-29T14:50:45;26.00;99.90
8436;DHT22;4255;48.730;9.156;2022-07-29T14:53:11;26.00;99.90
8436;DHT22;4255;48.730;9.156;2022-07-29T14:55:38;26.10;99.90
8436;DHT22;4255;48.730;9.156;2022-07-29T14:58:04;26.20;99.90
8436;DHT22;4255;48.730;9.156;2022-07-29T15:00:30;26.20;99.90
8436;DHT22;4255;48.730;9.156;2022-07-29T15:02:58;26.30;99.90
8436;DHT22;4255;48.730;9.156;2022-07-29T15:05:25;26.40;99.90
8436;DHT22;4255;48.730;9.156;2022-07-29T15:07:50;26.40;99.90
8436;DHT22;4255;48.730;9.156;2022-07-29T15:10:16;26.50;99.90
8436;DHT22;4255;48.730;9.156;2022-07-29T15:12:41;26.40;99.90
8436;DHT22;4255;48.730;9.156;2022-07-29T15:15:07;26.50;99.90
8436;DHT22;4255;48.730;9.156;2022-07-29T15:17:34;26.50;99.90
8436;DHT22;4255;48.730;9.156;2022-07-29T15:19:59;26.50;99.90
8436;DHT22;4255;48.730;9.156;2022-07-29T15:22:25;26.40;99.90
8436;DHT22;4255;48.730;9.156;2022-07-29T15:24:51;26.30;99.90
8436;DHT22;4255;48.730;9.156;2022-07-29T15:27:16;26.20;99.90
8436;DHT22;4255;48.730;9.156;2022-07-29T15:29:42;26.10;99.90
8436;DHT22;4255;48.730;9.156;2022-07-29T15:32:11;26.00;99.90
8436;DHT22;4255;48.730;9.156;2022-07-29T15:34:37;25.90;99.90
8436;DHT22;4255;48.730;9.156;2022-07-29T15:37:04;25.70;99.90
8436;DHT22;4255;48.730;9.156;2022-07-29T15:39:29;25.60;99.90
8436;DHT22;4255;48.730;9.156;2022-07-29T15:41:55;25.50;99.90
8436;DHT22;4255;48.730;9.156;2022-07-29T15:44:21;25.50;99.90
8436;DHT22;4255;48.730;9.156;2022-07-29T15:46:48;25.70;99.90
8436;DHT22;4255;48.730;9.156;2022-07-29T15:49:34;25.70;99.90
8436;DHT22;4255;48.730;9.156;2022-07-29T15:52:02;25.80;99.90
8436;DHT22;4255;48.730;9.156;2022-07-29T15:54:28;25.70;99.90
8436;DHT22;4255;48.730;9.156;2022-07-29T15:56:55;25.70;99.90
8436;DHT22;4255;48.730;9.156;2022-07-29T15:59:21;25.70;99.90
8436;DHT22;4255;48.730;9.156;2022-07-29T16:01:47;25.70;99.90
8436;DHT22;4255;48.730;9.156;2022-07-29T16:04:13;25.60;99.90
8436;DHT22;4255;48.730;9.156;2022-07-29T16:06:39;25.40;99.90
8436;DHT22;4255;48.730;9.156;2022-07-29T16:09:04;25.20;99.90
8436;DHT22;4255;48.730;9.156;2022-07-29T16:11:30;25.00;99.90
8436;DHT22;4255;48.730;9.156;2022-07-29T16:13:56;25.00;99.90
8436;DHT22;4255;48.730;9.156;2022-07-29T16:16:22;25.00;99.90
8436;DHT22;4255;48.730;9.156;2022-07-29T16:18:48;25.10;99.90
8436;DHT22;4255;48.730;9.156;2022-07-29T16:21:13;25.00;99.90
8436;DHT22;4255;48.730;9.156;2022-07-29T16:23:39;24.90;99.90
8436;DHT22;4255;48.730;9.156;2022-07-29T16:26:05;24.70;99.90
8436;DHT22;4255;48.730;9.156;2022-07-29T16:28:31;24.60;99.90
8436;DHT22;4255;48.730;9.156;2022-07-29T16:30:57;24.60;99.90
8436;DHT22;4255;48.730;9.156;2022-07-29T16:33:23;24.50;99.90
8436;DHT22;4255;48.730;9.156;2022-07-29T16:35:49;24.50;99.90
8436;DHT22;4255;48.730;9.156;2022-07-29T16:38:14;24.60;99.90
8436;DHT22;4255;48.730;9.156;2022-07-29T16:40:41;24.60;99.90
8436;DHT22;4255;48.730;9.156;2022-07-29T16:43:07;24.70;99.90
8436;DHT22;4255;48.730;9.156;2022-07-29T16:45:33;24.70;99.90